WSSS/SIN METAR and TAF weather

Enter ICAO airport designator
Station Type Date Time Source
WSSS METAR 2021/05/12 02:30 UTC NOAA

WSSS 120230Z 06005KT 010V110 9999 FEW018 SCT160 BKN300 30/27 Q1009 NOSIG


Station Type Date Time Source
WSSS Decoded METAR 2021/05/12 02:30 UTC NOAA

Singapore / Changi Airport, Singapore (WSSS) 01-22N 103-59E 16M
May 11, 2021 - 10:30 PM EDT / 2021.05.12 0230 UTC
Wind: from the ENE (060 degrees) at 6 MPH (5 KT) (direction variable):0
Visibility: greater than 7 mile(s):0
Sky conditions: mostly cloudy
Temperature: 86 F (30 C)
Heat index: 101.8 F (38.8 C):1
Dew Point: 80 F (27 C)
Relative Humidity: 84%
Pressure (altimeter): 29.80 in. Hg (1009 hPa)
ob: WSSS 120230Z 06005KT 010V110 9999 FEW018 SCT160 BKN300 30/27 Q1009 NOSIG
cycle: 2

Station Type Date Time Source
WSSS TAF 2021/05/12 01:04 UTC NOAA

TAF
AMD WSSS 120100Z 1201/1306 20007KT 9999 FEW015 SCT020
TEMPO 1204/1208 3000 TSRA FEW012CB BKN015

Example: see airport list